createdAt,value
2022-10-30T00:00:34.479Z,13.50
2022-10-30T00:03:03.085Z,13.40
2022-10-30T00:05:31.325Z,13.40
2022-10-30T00:08:00.815Z,13.30
2022-10-30T00:10:29.155Z,13.20
2022-10-30T00:12:57.989Z,13.10
2022-10-30T00:15:27.846Z,13.00
2022-10-30T00:17:56.669Z,12.90
2022-10-30T00:20:24.768Z,12.90
2022-10-30T00:22:52.741Z,12.90
2022-10-30T00:25:20.874Z,12.90
2022-10-30T00:27:51.178Z,12.80
2022-10-30T00:30:22.158Z,12.70
2022-10-30T00:32:51.774Z,12.60
2022-10-30T00:35:19.685Z,12.70
2022-10-30T00:37:47.589Z,12.60
2022-10-30T00:40:18.899Z,12.70
2022-10-30T00:42:46.780Z,12.60
2022-10-30T00:45:15.233Z,12.60
2022-10-30T00:47:44.474Z,12.70
2022-10-30T00:50:15.350Z,12.70
2022-10-30T00:52:49.504Z,12.80
2022-10-30T00:55:19.496Z,12.80
2022-10-30T00:57:51.572Z,12.90
2022-10-30T01:00:20.358Z,12.90
2022-10-30T01:02:48.492Z,12.90
2022-10-30T01:05:19.349Z,12.90
2022-10-30T01:07:48.747Z,12.90
2022-10-30T01:10:16.831Z,12.90
2022-10-30T01:12:48.604Z,12.90
2022-10-30T01:15:17.359Z,12.90
2022-10-30T01:17:54.226Z,12.80
2022-10-30T01:20:34.853Z,12.80
2022-10-30T01:23:14.641Z,12.80
2022-10-30T01:25:51.163Z,12.80
2022-10-30T01:28:27.034Z,12.70
2022-10-30T01:31:04.988Z,12.70
2022-10-30T01:33:39.250Z,12.70
2022-10-30T01:36:13.126Z,12.70
2022-10-30T01:38:45.993Z,12.60
2022-10-30T01:41:15.456Z,12.60
2022-10-30T01:43:46.262Z,12.60
2022-10-30T01:46:23.780Z,12.60
2022-10-30T01:49:01.598Z,12.50
2022-10-30T01:51:36.016Z,12.50
2022-10-30T01:54:09.180Z,12.50
2022-10-30T01:56:39.695Z,12.40
2022-10-30T01:59:11.617Z,12.40
2022-10-30T02:01:40.700Z,12.40
2022-10-30T02:04:09.576Z,12.40
2022-10-30T02:06:39.132Z,12.50
2022-10-30T02:09:07.468Z,12.40
2022-10-30T02:11:36.817Z,12.40
2022-10-30T02:14:06.422Z,12.50
2022-10-30T02:16:37.133Z,12.50
2022-10-30T02:19:06.531Z,12.50
2022-10-30T02:21:35.848Z,12.50
2022-10-30T02:24:05.172Z,12.40
2022-10-30T02:26:33.106Z,12.40
2022-10-30T02:29:02.913Z,12.40
2022-10-30T02:31:33.120Z,12.40
2022-10-30T02:34:01.347Z,12.40
2022-10-30T02:36:29.448Z,12.40
2022-10-30T02:38:59.198Z,12.50
2022-10-30T02:41:28.458Z,12.60
2022-10-30T02:43:57.157Z,12.50
2022-10-30T02:46:25.062Z,12.60
2022-10-30T02:48:52.980Z,12.50
2022-10-30T02:51:21.265Z,12.60
2022-10-30T02:53:50.719Z,12.60
2022-10-30T02:56:20.161Z,12.70
2022-10-30T02:58:48.159Z,12.70
2022-10-30T03:01:17.348Z,12.70
2022-10-30T03:03:46.167Z,12.70
2022-10-30T03:06:15.507Z,12.70
2022-10-30T03:08:43.766Z,12.70
2022-10-30T03:11:13.105Z,12.70
2022-10-30T03:13:42.757Z,12.80
2022-10-30T03:16:12.372Z,12.80
2022-10-30T03:18:40.238Z,12.80
2022-10-30T03:21:11.798Z,12.90
2022-10-30T03:23:39.686Z,12.90
2022-10-30T03:26:07.784Z,12.90
2022-10-30T03:28:48.507Z,12.80
2022-10-30T03:31:17.348Z,12.80
2022-10-30T03:33:45.643Z,12.80
2022-10-30T03:36:14.572Z,12.70
2022-10-30T03:38:42.453Z,12.70
2022-10-30T03:41:12.346Z,12.70
2022-10-30T03:43:43.401Z,12.70
2022-10-30T03:46:14.967Z,12.70
2022-10-30T03:48:42.944Z,12.70
2022-10-30T03:51:13.457Z,12.60
2022-10-30T03:53:43.886Z,12.60
2022-10-30T03:56:11.877Z,12.60
2022-10-30T03:58:46.783Z,12.60
2022-10-30T04:01:21.581Z,12.50
2022-10-30T04:03:56.323Z,12.50
2022-10-30T04:06:26.358Z,12.60
2022-10-30T04:08:57.085Z,12.70
2022-10-30T04:11:25.848Z,12.70
2022-10-30T04:13:53.972Z,12.70
2022-10-30T04:16:24.924Z,12.70
2022-10-30T04:18:52.892Z,12.60
2022-10-30T04:21:21.805Z,12.70
2022-10-30T04:23:50.373Z,12.60
2022-10-30T04:26:21.676Z,12.50
2022-10-30T04:28:52.048Z,12.50
2022-10-30T04:31:21.255Z,12.50
2022-10-30T04:33:51.781Z,12.50
2022-10-30T04:36:24.127Z,12.50
2022-10-30T04:38:52.585Z,12.50
2022-10-30T04:41:22.149Z,12.40
2022-10-30T04:44:00.696Z,12.30
2022-10-30T04:46:34.469Z,12.20
2022-10-30T04:49:13.548Z,12.20
2022-10-30T04:51:42.112Z,12.20
2022-10-30T04:54:11.414Z,12.20
2022-10-30T04:56:39.746Z,12.20
2022-10-30T04:59:09.736Z,12.30
2022-10-30T05:01:43.337Z,12.20
2022-10-30T05:04:34.330Z,12.10
2022-10-30T05:07:05.313Z,12.00
2022-10-30T05:09:33.561Z,12.00
2022-10-30T05:12:01.703Z,11.90
2022-10-30T05:14:40.651Z,11.90
2022-10-30T05:17:09.802Z,11.90
2022-10-30T05:19:38.937Z,11.90
2022-10-30T05:22:11.600Z,11.80
2022-10-30T05:24:39.707Z,11.80
2022-10-30T05:27:07.630Z,11.80
2022-10-30T05:29:37.552Z,11.80
2022-10-30T05:32:05.878Z,11.80
2022-10-30T05:34:40.856Z,11.70
2022-10-30T05:37:13.290Z,11.70
2022-10-30T05:39:41.856Z,11.60
2022-10-30T05:42:18.281Z,11.60
2022-10-30T05:45:00.392Z,11.60
2022-10-30T05:47:31.126Z,11.60
2022-10-30T05:49:59.509Z,11.60
2022-10-30T05:52:29.661Z,11.60
2022-10-30T05:55:00.353Z,11.60
2022-10-30T05:57:59.634Z,11.60
2022-10-30T06:00:30.333Z,11.60
2022-10-30T06:03:02.416Z,11.70
2022-10-30T06:05:33.092Z,11.70
2022-10-30T06:08:04.566Z,11.70
2022-10-30T06:10:36.837Z,11.70
2022-10-30T06:13:15.972Z,11.70
2022-10-30T06:15:49.631Z,11.70
2022-10-30T06:18:17.792Z,11.60
2022-10-30T06:20:49.272Z,11.60
2022-10-30T06:23:48.877Z,11.50
2022-10-30T06:27:05.301Z,11.50
2022-10-30T06:29:33.269Z,11.50
2022-10-30T06:32:05.545Z,11.50
2022-10-30T06:34:34.870Z,11.50
2022-10-30T06:37:04.559Z,11.60
2022-10-30T06:39:34.104Z,11.60
2022-10-30T06:42:20.491Z,11.60
2022-10-30T06:44:58.410Z,11.60
2022-10-30T06:47:26.490Z,11.60
2022-10-30T06:49:54.777Z,11.70
2022-10-30T06:52:23.280Z,11.80
2022-10-30T06:54:55.399Z,12.00
2022-10-30T06:57:41.911Z,12.40
2022-10-30T07:00:31.405Z,12.80
2022-10-30T07:03:18.436Z,13.10
2022-10-30T07:05:47.652Z,13.20
2022-10-30T07:08:16.779Z,13.30
2022-10-30T07:10:46.939Z,13.40
2022-10-30T07:13:43.869Z,13.60
2022-10-30T07:16:26.913Z,13.70
2022-10-30T07:18:58.216Z,13.80
2022-10-30T07:21:28.649Z,14.00
2022-10-30T07:23:57.531Z,14.40
2022-10-30T07:26:37.980Z,15.20
2022-10-30T07:29:22.795Z,16.10
2022-10-30T07:32:12.877Z,17.10
2022-10-30T07:34:53.155Z,18.20
2022-10-30T07:37:40.000Z,19.00
2022-10-30T07:40:13.162Z,19.60
2022-10-30T07:42:58.371Z,20.20
2022-10-30T07:45:42.876Z,20.80
2022-10-30T07:48:29.292Z,21.60
2022-10-30T07:51:03.155Z,22.40
2022-10-30T07:53:31.170Z,22.80
2022-10-30T07:55:59.354Z,23.00
2022-10-30T07:59:00.621Z,23.30
2022-10-30T08:01:46.965Z,23.80
2022-10-30T08:04:29.912Z,24.40
2022-10-30T08:07:06.195Z,24.70
2022-10-30T08:09:34.803Z,24.60
2022-10-30T08:12:03.761Z,24.50
2022-10-30T08:14:34.908Z,24.30
2022-10-30T08:17:05.147Z,24.10
2022-10-30T08:19:33.355Z,24.10
2022-10-30T08:22:02.229Z,24.20
2022-10-30T08:24:34.462Z,24.50
2022-10-30T08:27:02.494Z,24.80
2022-10-30T08:29:30.935Z,25.10
2022-10-30T08:32:01.078Z,25.50
2022-10-30T08:34:47.499Z,26.40
2022-10-30T08:37:18.786Z,27.40
2022-10-30T08:39:47.072Z,28.30
2022-10-30T08:42:34.977Z,29.10
2022-10-30T08:45:08.474Z,29.90
2022-10-30T08:48:01.926Z,30.20
2022-10-30T08:50:31.371Z,30.10
2022-10-30T08:53:02.179Z,29.80
2022-10-30T08:55:30.699Z,29.50
2022-10-30T08:58:02.528Z,29.70
2022-10-30T09:00:31.423Z,29.60
2022-10-30T09:03:21.110Z,29.30
2022-10-30T09:06:07.867Z,29.90
2022-10-30T09:09:01.927Z,30.60
2022-10-30T09:11:41.516Z,31.30
2022-10-30T09:14:09.539Z,31.40
2022-10-30T09:16:37.411Z,31.00
2022-10-30T09:19:06.706Z,30.60
2022-10-30T09:21:34.640Z,30.70
2022-10-30T09:24:02.976Z,30.50
2022-10-30T09:26:37.046Z,30.50
2022-10-30T09:29:27.842Z,30.80
2022-10-30T09:32:08.656Z,31.50
2022-10-30T09:34:43.201Z,32.10
2022-10-30T09:37:19.072Z,32.10
2022-10-30T09:39:50.504Z,32.10
2022-10-30T09:42:37.660Z,32.50
2022-10-30T09:45:28.513Z,32.50
2022-10-30T09:48:04.185Z,32.80
2022-10-30T09:50:50.111Z,33.60
2022-10-30T09:53:23.959Z,34.30
2022-10-30T09:55:53.872Z,34.60
2022-10-30T09:58:25.707Z,35.00
2022-10-30T10:01:00.730Z,34.90
2022-10-30T10:03:39.709Z,34.30
2022-10-30T10:06:28.153Z,33.60
2022-10-30T10:09:07.588Z,33.60
2022-10-30T10:12:13.385Z,33.90
2022-10-30T10:14:43.036Z,34.60
2022-10-30T10:17:13.077Z,35.20
2022-10-30T10:19:43.549Z,35.50
2022-10-30T10:22:21.057Z,35.80
2022-10-30T10:24:49.750Z,36.30
2022-10-30T10:27:24.239Z,36.80
2022-10-30T10:29:58.877Z,36.90
2022-10-30T10:32:45.846Z,36.80
2022-10-30T10:35:29.922Z,36.80
2022-10-30T10:38:05.639Z,37.00
2022-10-30T10:40:40.505Z,37.40
2022-10-30T10:43:12.818Z,37.80
2022-10-30T10:45:45.161Z,38.20
2022-10-30T10:48:18.955Z,38.70
2022-10-30T10:50:49.798Z,39.30
2022-10-30T10:53:23.509Z,39.50
2022-10-30T10:55:53.884Z,39.60
2022-10-30T10:58:31.589Z,39.30
2022-10-30T11:00:59.896Z,38.90
2022-10-30T11:03:31.027Z,38.90
2022-10-30T11:06:01.020Z,38.70
2022-10-30T11:08:30.926Z,38.40
2022-10-30T11:10:59.492Z,37.90
2022-10-30T11:13:29.727Z,37.50
2022-10-30T11:16:00.538Z,37.50
2022-10-30T11:18:28.471Z,38.10
2022-10-30T11:20:58.749Z,38.80
2022-10-30T11:23:35.028Z,38.80
2022-10-30T11:26:03.769Z,38.60
2022-10-30T11:28:41.677Z,38.80
2022-10-30T11:31:20.286Z,39.10
2022-10-30T11:33:49.468Z,39.20
2022-10-30T11:36:18.034Z,39.30
2022-10-30T11:38:47.508Z,39.30
2022-10-30T11:41:15.631Z,38.90
2022-10-30T11:43:44.199Z,38.70
2022-10-30T11:46:14.105Z,38.40
2022-10-30T11:48:45.749Z,37.20
2022-10-30T11:51:14.798Z,36.00
2022-10-30T11:53:48.147Z,35.40
2022-10-30T11:56:18.425Z,34.60
2022-10-30T11:58:47.869Z,34.00
2022-10-30T12:01:18.391Z,33.40
2022-10-30T12:03:46.795Z,32.90
2022-10-30T12:06:18.965Z,32.40
2022-10-30T12:09:04.624Z,32.50
2022-10-30T12:11:34.930Z,32.50
2022-10-30T12:14:03.197Z,32.50
2022-10-30T12:16:31.477Z,32.40
2022-10-30T12:19:03.542Z,31.80
2022-10-30T12:21:40.026Z,31.70
2022-10-30T12:24:13.397Z,31.70
2022-10-30T12:26:46.519Z,31.70
2022-10-30T12:29:16.683Z,31.70
2022-10-30T12:31:47.306Z,31.90
2022-10-30T12:34:30.180Z,32.20
2022-10-30T12:37:04.264Z,32.30
2022-10-30T12:39:36.454Z,32.50
2022-10-30T12:42:08.241Z,33.10
2022-10-30T12:44:37.938Z,33.40
2022-10-30T12:47:09.888Z,33.70
2022-10-30T12:49:41.628Z,34.00
2022-10-30T12:52:12.759Z,34.20
2022-10-30T12:54:43.692Z,34.40
2022-10-30T12:57:14.804Z,34.20
2022-10-30T12:59:47.775Z,34.30
2022-10-30T13:02:22.149Z,34.20
2022-10-30T13:04:52.329Z,34.50
2022-10-30T13:07:23.135Z,34.20
2022-10-30T13:09:55.687Z,34.50
2022-10-30T13:12:28.447Z,34.80
2022-10-30T13:14:59.118Z,35.00
2022-10-30T13:17:28.792Z,35.20
2022-10-30T13:19:56.898Z,34.90
2022-10-30T13:22:26.639Z,34.80
2022-10-30T13:25:02.615Z,35.00
2022-10-30T13:27:41.061Z,34.90
2022-10-30T13:30:12.286Z,34.60
2022-10-30T13:32:45.880Z,33.90
2022-10-30T13:35:23.354Z,33.40
2022-10-30T13:37:54.261Z,32.60
2022-10-30T13:40:25.155Z,32.30
2022-10-30T13:42:59.990Z,32.30
2022-10-30T13:45:38.194Z,32.30
2022-10-30T13:48:11.398Z,32.30
2022-10-30T13:50:48.187Z,32.30
2022-10-30T13:53:21.066Z,32.20
2022-10-30T13:55:49.189Z,32.00
2022-10-30T13:58:22.713Z,31.70
2022-10-30T14:00:58.268Z,31.40
2022-10-30T14:03:30.420Z,31.00
2022-10-30T14:06:03.179Z,30.70
2022-10-30T14:08:34.380Z,30.50
2022-10-30T14:11:03.765Z,30.40
2022-10-30T14:13:46.140Z,30.00
2022-10-30T14:16:28.937Z,29.60
2022-10-30T14:19:03.266Z,29.20
2022-10-30T14:21:33.368Z,28.90
2022-10-30T14:24:05.647Z,28.40
2022-10-30T14:26:33.651Z,28.00
2022-10-30T14:29:22.947Z,27.50
2022-10-30T14:31:51.174Z,27.00
2022-10-30T14:34:33.883Z,26.70
2022-10-30T14:37:01.818Z,26.70
2022-10-30T14:39:31.152Z,26.70
2022-10-30T14:42:07.738Z,26.80
2022-10-30T14:44:54.343Z,26.90
2022-10-30T14:47:33.973Z,26.80
2022-10-30T14:50:04.233Z,26.70
2022-10-30T14:52:37.299Z,26.60
2022-10-30T14:55:23.617Z,26.40
2022-10-30T14:57:53.303Z,26.30
2022-10-30T15:00:42.241Z,26.30
2022-10-30T15:03:14.827Z,26.10
2022-10-30T15:05:45.367Z,25.80
2022-10-30T15:08:21.082Z,25.60
2022-10-30T15:10:52.599Z,25.30
2022-10-30T15:13:21.818Z,24.90
2022-10-30T15:15:59.716Z,24.60
2022-10-30T15:18:30.602Z,24.20
2022-10-30T15:21:03.076Z,23.90
2022-10-30T15:23:32.432Z,23.70
2022-10-30T15:26:06.464Z,23.50
2022-10-30T15:28:37.937Z,23.30
2022-10-30T15:31:08.392Z,23.20
2022-10-30T15:33:39.803Z,23.10
2022-10-30T15:36:17.710Z,22.90
2022-10-30T15:38:45.684Z,22.60
2022-10-30T15:41:13.764Z,22.40
2022-10-30T15:43:42.644Z,22.10
2022-10-30T15:46:14.513Z,21.90
2022-10-30T15:48:46.671Z,21.70
2022-10-30T15:51:16.453Z,21.50
2022-10-30T15:53:46.489Z,21.30
2022-10-30T15:56:19.983Z,21.10
2022-10-30T15:58:50.535Z,21.10
2022-10-30T16:01:26.531Z,20.90
2022-10-30T16:03:55.666Z,20.70
2022-10-30T16:06:25.539Z,20.50
2022-10-30T16:08:53.775Z,20.40
2022-10-30T16:11:22.745Z,20.10
2022-10-30T16:13:51.851Z,20.00
2022-10-30T16:16:22.471Z,19.80
2022-10-30T16:18:52.681Z,19.70
2022-10-30T16:21:23.042Z,19.50
2022-10-30T16:23:53.015Z,19.50
2022-10-30T16:26:26.499Z,19.40
2022-10-30T16:28:54.723Z,19.30
2022-10-30T16:31:24.374Z,19.10
2022-10-30T16:33:53.821Z,19.00
2022-10-30T16:36:26.524Z,18.90
2022-10-30T16:38:55.837Z,18.80
2022-10-30T16:41:26.916Z,18.70
2022-10-30T16:44:19.026Z,18.60
2022-10-30T16:46:51.789Z,18.50
2022-10-30T16:49:23.144Z,18.40
2022-10-30T16:51:54.418Z,18.30
2022-10-30T16:54:25.791Z,18.30
2022-10-30T16:56:55.092Z,18.10
2022-10-30T16:59:26.780Z,18.00
2022-10-30T17:01:56.815Z,17.90
2022-10-30T17:04:26.739Z,17.60
2022-10-30T17:07:03.915Z,17.40
2022-10-30T17:09:35.310Z,17.20
2022-10-30T17:12:07.448Z,17.00
2022-10-30T17:14:48.500Z,16.90
2022-10-30T17:17:38.077Z,16.70
2022-10-30T17:20:13.335Z,16.70
2022-10-30T17:22:41.747Z,16.60
2022-10-30T17:25:17.221Z,16.50
2022-10-30T17:27:50.515Z,16.30
2022-10-30T17:30:32.076Z,16.20
2022-10-30T17:33:00.719Z,16.10
2022-10-30T17:35:31.951Z,16.00
2022-10-30T17:38:02.961Z,16.00
2022-10-30T17:40:31.866Z,15.90
2022-10-30T17:43:00.327Z,15.90
2022-10-30T17:45:30.576Z,15.80
2022-10-30T17:47:59.149Z,15.80
2022-10-30T17:50:27.790Z,15.70
2022-10-30T17:52:57.981Z,15.70
2022-10-30T17:55:29.583Z,15.60
2022-10-30T17:57:58.030Z,15.50
2022-10-30T18:00:26.272Z,15.30
2022-10-30T18:02:54.337Z,15.10
2022-10-30T18:05:23.677Z,15.10
2022-10-30T18:07:51.788Z,15.00
2022-10-30T18:10:21.205Z,14.90
2022-10-30T18:12:49.220Z,14.70
2022-10-30T18:15:39.189Z,14.70
2022-10-30T18:18:07.409Z,14.60
2022-10-30T18:20:35.468Z,14.50
2022-10-30T18:23:04.219Z,14.40
2022-10-30T18:25:35.003Z,14.40
2022-10-30T18:28:03.951Z,14.40
2022-10-30T18:30:31.976Z,14.30
2022-10-30T18:33:00.946Z,14.20
2022-10-30T18:35:31.313Z,14.20
2022-10-30T18:37:59.379Z,14.10
2022-10-30T18:40:27.664Z,14.10
2022-10-30T18:42:57.787Z,14.10
2022-10-30T18:45:27.655Z,14.10
2022-10-30T18:47:56.466Z,14.10
2022-10-30T18:50:25.261Z,14.10
2022-10-30T18:52:54.701Z,14.10
2022-10-30T18:55:24.024Z,14.10
2022-10-30T18:57:52.746Z,14.10
2022-10-30T19:00:25.050Z,14.10
2022-10-30T19:02:53.549Z,14.10
2022-10-30T19:05:26.088Z,14.00
2022-10-30T19:07:54.366Z,13.90
2022-10-30T19:10:22.755Z,13.70
2022-10-30T19:13:10.813Z,13.70
2022-10-30T19:15:43.859Z,13.70
2022-10-30T19:18:12.923Z,13.70
2022-10-30T19:21:03.194Z,13.60
2022-10-30T19:23:29.011Z,13.60
2022-10-30T19:25:57.117Z,13.50
2022-10-30T19:28:25.779Z,13.40
2022-10-30T19:30:55.130Z,13.40
2022-10-30T19:33:24.185Z,13.30
2022-10-30T19:35:55.864Z,13.30
2022-10-30T19:38:24.681Z,13.30
2022-10-30T19:40:53.062Z,13.30
2022-10-30T19:43:23.653Z,13.20
2022-10-30T19:45:58.117Z,13.20
2022-10-30T19:51:16.851Z,13.20
2022-10-30T19:53:46.699Z,13.10
2022-10-30T19:56:17.103Z,13.00
2022-10-30T19:58:45.204Z,13.00
2022-10-30T20:01:16.240Z,13.00
2022-10-30T20:03:44.701Z,13.00
2022-10-30T20:06:13.485Z,13.00
2022-10-30T20:08:42.241Z,13.00
2022-10-30T20:11:10.316Z,13.00
2022-10-30T20:13:38.348Z,13.00
2022-10-30T20:16:06.784Z,13.00
2022-10-30T20:18:37.757Z,12.90
2022-10-30T20:21:08.426Z,12.70
2022-10-30T20:23:36.916Z,12.60
2022-10-30T20:26:06.655Z,12.50
2022-10-30T20:28:36.384Z,12.50
2022-10-30T20:31:04.903Z,12.40
2022-10-30T20:33:32.909Z,12.40
2022-10-30T20:36:02.173Z,12.50
2022-10-30T20:38:33.088Z,12.50
2022-10-30T20:41:02.055Z,12.40
2022-10-30T20:43:31.255Z,12.40
2022-10-30T20:45:59.454Z,12.40
2022-10-30T20:48:27.470Z,12.40
2022-10-30T20:50:56.051Z,12.30
2022-10-30T20:53:25.551Z,12.30
2022-10-30T20:55:53.828Z,12.20
2022-10-30T20:58:21.829Z,12.20
2022-10-30T21:00:49.916Z,12.10
2022-10-30T21:03:18.100Z,12.10
2022-10-30T21:05:46.317Z,12.00
2022-10-30T21:08:15.118Z,12.00
2022-10-30T21:10:44.326Z,12.00
2022-10-30T21:13:13.015Z,12.00
2022-10-30T21:15:42.889Z,12.10
2022-10-30T21:18:11.804Z,12.10
2022-10-30T21:20:41.052Z,12.10
2022-10-30T21:23:09.923Z,12.20
2022-10-30T21:25:37.869Z,12.30
2022-10-30T21:28:07.267Z,12.30
2022-10-30T21:30:35.208Z,12.30
2022-10-30T21:33:03.482Z,12.20
2022-10-30T21:35:31.812Z,12.20
2022-10-30T21:37:59.748Z,12.10
2022-10-30T21:40:27.610Z,12.00
2022-10-30T21:42:58.470Z,12.00
2022-10-30T21:45:30.721Z,12.00
2022-10-30T21:47:58.571Z,11.90
2022-10-30T21:50:43.997Z,11.90
2022-10-30T21:53:11.972Z,11.90
2022-10-30T21:55:40.000Z,11.90
2022-10-30T21:58:08.016Z,11.90
2022-10-30T22:00:37.309Z,11.80
2022-10-30T22:03:05.165Z,11.60
2022-10-30T22:05:35.242Z,11.50
2022-10-30T22:08:03.209Z,11.40
2022-10-30T22:10:31.316Z,11.40
2022-10-30T22:12:59.438Z,11.50
2022-10-30T22:15:27.668Z,11.40
2022-10-30T22:17:57.422Z,11.40
2022-10-30T22:20:25.499Z,11.40
2022-10-30T22:22:55.104Z,11.40
2022-10-30T22:25:24.876Z,11.30
2022-10-30T22:27:53.657Z,11.20
2022-10-30T22:30:21.777Z,11.10
2022-10-30T22:32:50.078Z,11.00
2022-10-30T22:35:19.307Z,11.00
2022-10-30T22:37:47.154Z,11.00
2022-10-30T22:40:15.121Z,11.00
2022-10-30T22:42:43.004Z,11.00
2022-10-30T22:45:11.036Z,11.00
2022-10-30T22:47:39.672Z,11.00
2022-10-30T22:50:07.927Z,11.10
2022-10-30T22:52:37.164Z,11.00
2022-10-30T22:55:05.608Z,11.00
2022-10-30T22:57:33.700Z,11.00
2022-10-30T23:00:01.527Z,10.90
2022-10-30T23:02:29.652Z,10.90
2022-10-30T23:04:59.920Z,10.80
2022-10-30T23:07:30.048Z,10.80
2022-10-30T23:09:59.267Z,10.70
2022-10-30T23:12:27.176Z,10.80
2022-10-30T23:14:55.199Z,10.80
2022-10-30T23:17:23.170Z,10.80
2022-10-30T23:19:52.704Z,10.80
2022-10-30T23:22:20.862Z,10.80
2022-10-30T23:24:49.180Z,10.80
2022-10-30T23:27:18.926Z,10.80
2022-10-30T23:29:48.255Z,10.80
2022-10-30T23:32:16.683Z,10.90
2022-10-30T23:34:44.554Z,10.90
2022-10-30T23:37:15.311Z,10.90
2022-10-30T23:39:43.263Z,10.90
2022-10-30T23:42:11.273Z,10.90
2022-10-30T23:44:43.257Z,10.90
2022-10-30T23:47:11.436Z,10.80
2022-10-30T23:49:39.269Z,10.80
2022-10-30T23:52:07.112Z,10.80
2022-10-30T23:54:34.917Z,10.70
2022-10-30T23:57:02.775Z,10.60
2022-10-30T23:59:30.751Z,10.60
